SAAC/COC METAR and TAF weather

Enter ICAO airport designator
Station Type Date Time Source
SAAC METAR 2021/07/15 16:30 UTC NOAA

SAAC 151630Z 20008KT 9999 SCT004 OVC006 15/11 Q1019


Station Type Date Time Source
SAAC Decoded METAR 2021/07/15 16:30 UTC NOAA

Concordia Aerodrome, Argentina (SAAC) 31-18S 058-01W 38M
Jul 15, 2021 - 12:30 PM EDT / 2021.07.15 1630 UTC
Wind: from the SSW (200 degrees) at 9 MPH (8 KT):0
Visibility: greater than 7 mile(s):0
Sky conditions: overcast
Temperature: 59 F (15 C)
Dew Point: 51 F (11 C)
Relative Humidity: 76%
Pressure (altimeter): 30.09 in. Hg (1019 hPa)
ob: SAAC 151630Z 20008KT 9999 SCT004 OVC006 15/11 Q1019
cycle: 16

Station Type Date Time Source
SAAC TAF UTC NOAA

Error!

Example: see airport list